Time,TemperatureF,DewpointF,PressureIn,WindDirection,WindDirectionDegrees,WindSpeedMPH,WindSpeedGustMPH,Humidity,HourlyPrecipIn,Conditions,Clouds,dailyrainin,SoftwareType,DateUTC
2013-08-23 00:01:00,63.8,61.7,30.09,North,5,0.0,1.0,93,0.00,,SKC,0.00,VWS V14.01,2013-08-23 04:01:00,
2013-08-23 00:06:00,63.7,61.6,30.09,North,5,0.0,0.0,93,0.00,,SKC,0.00,VWS V14.01,2013-08-23 04:06:00,
2013-08-23 00:11:00,63.7,61.6,30.09,North,5,0.0,1.0,93,0.00,,SKC,0.00,VWS V14.01,2013-08-23 04:11:00,
2013-08-23 00:16:00,63.6,61.5,30.09,North,5,0.0,0.0,93,0.00,,SKC,0.00,VWS V14.01,2013-08-23 04:16:00,
2013-08-23 00:21:00,63.6,61.5,30.09,North,360,0.0,0.0,93,0.00,,SKC,0.00,VWS V14.01,2013-08-23 04:21:00,
2013-08-23 00:26:00,63.4,61.3,30.09,North,5,0.0,0.0,93,0.00,,SKC,0.00,VWS V14.01,2013-08-23 04:26:00,
2013-08-23 00:31:00,63.3,61.2,30.09,North,360,0.0,0.0,93,0.00,,SKC,0.00,VWS V14.01,2013-08-23 04:31:00,
2013-08-23 00:36:00,63.2,61.2,30.09,North,360,0.0,0.0,93,0.00,,SKC,0.00,VWS V14.01,2013-08-23 04:36:00,
2013-08-23 00:41:00,63.0,61.0,30.09,North,5,0.0,0.0,93,0.00,,SKC,0.00,VWS V14.01,2013-08-23 04:41:00,
2013-08-23 00:46:00,62.9,60.8,30.09,North,5,0.0,0.0,93,0.00,,SKC,0.00,VWS V14.01,2013-08-23 04:46:00,
2013-08-23 00:51:00,62.7,60.7,30.09,North,5,0.0,0.0,93,0.00,,SKC,0.00,VWS V14.01,2013-08-23 04:51:00,
2013-08-23 00:56:00,62.6,60.5,30.09,North,360,0.0,0.0,93,0.00,,SKC,0.00,VWS V14.01,2013-08-23 04:56:00,
2013-08-23 01:01:00,62.4,60.3,30.09,North,360,0.0,1.0,93,0.00,,SKC,0.00,VWS V14.01,2013-08-23 05:01:00,
2013-08-23 01:06:00,62.3,60.2,30.09,North,5,0.0,0.0,93,0.00,,SKC,0.00,VWS V14.01,2013-08-23 05:06:00,
2013-08-23 01:11:00,62.2,60.2,30.09,North,5,0.0,0.0,93,0.00,,SKC,0.00,VWS V14.01,2013-08-23 05:11:00,
2013-08-23 01:16:00,62.1,60.4,30.09,North,360,0.0,0.0,94,0.00,,SKC,0.00,VWS V14.01,2013-08-23 05:16:00,
2013-08-23 01:21:00,62.0,60.3,30.09,North,360,0.0,0.0,94,0.00,,SKC,0.00,VWS V14.01,2013-08-23 05:21:00,
2013-08-23 01:26:00,61.9,60.2,30.09,North,360,1.0,1.0,94,0.00,,SKC,0.00,VWS V14.01,2013-08-23 05:26:00,
2013-08-23 01:31:00,61.7,60.0,30.09,North,360,0.0,0.0,94,0.00,,SKC,0.00,VWS V14.01,2013-08-23 05:31:00,
2013-08-23 01:36:00,61.6,59.9,30.09,North,5,0.0,0.0,94,0.00,,SKC,0.00,VWS V14.01,2013-08-23 05:36:00,
2013-08-23 01:41:00,61.4,59.7,30.09,North,5,0.0,0.0,94,0.00,,SKC,0.00,VWS V14.01,2013-08-23 05:41:00,
2013-08-23 01:46:00,61.3,59.6,30.09,North,5,0.0,0.0,94,0.00,,SKC,0.00,VWS V14.01,2013-08-23 05:46:00,
2013-08-23 01:51:00,61.2,59.5,30.09,North,360,0.0,0.0,94,0.00,,SKC,0.00,VWS V14.01,2013-08-23 05:51:00,
2013-08-23 01:56:00,61.2,59.5,30.09,North,5,0.0,0.0,94,0.00,,SKC,0.00,VWS V14.01,2013-08-23 05:56:00,
2013-08-23 02:01:00,61.1,59.4,30.09,North,5,0.0,0.0,94,0.00,,SKC,0.00,VWS V14.01,2013-08-23 06:01:00,
2013-08-23 02:06:00,61.2,59.5,30.09,North,5,0.0,0.0,94,0.00,,SKC,0.00,VWS V14.01,2013-08-23 06:06:00,
2013-08-23 02:11:00,61.1,59.4,30.09,North,5,0.0,0.0,94,0.00,,SKC,0.00,VWS V14.01,2013-08-23 06:11:00,
2013-08-23 02:16:00,61.1,59.4,30.09,North,5,0.0,0.0,94,0.00,,SKC,0.00,VWS V14.01,2013-08-23 06:16:00,
2013-08-23 02:21:00,61.1,59.4,30.09,North,360,2.0,2.0,94,0.00,,SKC,0.00,VWS V14.01,2013-08-23 06:21:00,
2013-08-23 02:26:00,61.0,59.3,30.09,North,360,0.0,0.0,94,0.00,,SKC,0.00,VWS V14.01,2013-08-23 06:26:00,
2013-08-23 02:31:00,60.8,59.1,30.09,North,360,0.0,0.0,94,0.00,,SKC,0.00,VWS V14.01,2013-08-23 06:31:00,
2013-08-23 02:36:00,60.7,59.0,30.09,North,360,0.0,0.0,94,0.00,,SKC,0.00,VWS V14.01,2013-08-23 06:36:00,
2013-08-23 02:41:00,60.5,58.8,30.09,North,360,0.0,0.0,94,0.00,,SKC,0.00,VWS V14.01,2013-08-23 06:41:00,
2013-08-23 02:46:00,60.4,58.7,30.09,North,5,0.0,0.0,94,0.00,,SKC,0.00,VWS V14.01,2013-08-23 06:46:00,
2013-08-23 02:51:00,60.3,58.6,30.09,North,5,0.0,0.0,94,0.00,,SKC,0.00,VWS V14.01,2013-08-23 06:51:00,
2013-08-23 02:56:00,60.2,58.5,30.09,North,5,1.0,1.0,94,0.00,,SKC,0.00,VWS V14.01,2013-08-23 06:56:00,
2013-08-23 03:01:00,60.3,58.6,30.09,North,360,0.0,0.0,94,0.00,,SKC,0.00,VWS V14.01,2013-08-23 07:01:00,
2013-08-23 03:06:00,60.4,59.0,30.09,North,5,2.0,5.0,95,0.00,,SKC,0.00,VWS V14.01,2013-08-23 07:06:00,
2013-08-23 03:11:00,60.2,58.5,30.09,North,5,0.0,0.0,94,0.00,,SKC,0.00,VWS V14.01,2013-08-23 07:11:00,
2013-08-23 03:16:00,60.2,58.8,30.09,North,5,0.0,0.0,95,0.00,,SKC,0.00,VWS V14.01,2013-08-23 07:16:00,
2013-08-23 03:21:00,60.1,58.7,30.09,North,360,0.0,0.0,95,0.00,,SKC,0.00,VWS V14.01,2013-08-23 07:21:00,
2013-08-23 03:26:00,60.0,58.3,30.09,North,360,0.0,0.0,94,0.00,,SKC,0.00,VWS V14.01,2013-08-23 07:26:00,
2013-08-23 03:31:00,59.9,58.2,30.09,North,5,0.0,0.0,94,0.00,,SKC,0.00,VWS V14.01,2013-08-23 07:31:00,
2013-08-23 03:36:00,59.8,58.1,30.09,North,360,0.0,0.0,94,0.00,,SKC,0.00,VWS V14.01,2013-08-23 07:36:00,
2013-08-23 03:41:00,59.8,58.4,30.09,North,5,0.0,0.0,95,0.00,,SKC,0.00,VWS V14.01,2013-08-23 07:41:00,
2013-08-23 03:46:00,59.9,58.5,30.09,North,5,0.0,0.0,95,0.00,,SKC,0.00,VWS V14.01,2013-08-23 07:46:00,
2013-08-23 03:51:00,60.0,58.6,30.09,North,5,0.0,0.0,95,0.00,,SKC,0.00,VWS V14.01,2013-08-23 07:51:00,
2013-08-23 03:56:00,60.1,58.7,30.09,North,360,0.0,0.0,95,0.00,,SKC,0.00,VWS V14.01,2013-08-23 07:56:00,
2013-08-23 04:01:00,60.2,58.8,30.09,North,5,0.0,0.0,95,0.00,,SKC,0.00,VWS V14.01,2013-08-23 08:01:00,
2013-08-23 04:06:00,60.2,58.8,30.09,North,360,0.0,0.0,95,0.00,,SKC,0.00,VWS V14.01,2013-08-23 08:06:00,
2013-08-23 04:10:00,60.0,58.6,30.09,North,5,0.0,0.0,95,0.00,,SKC,0.00,VWS V14.01,2013-08-23 08:10:00,
2013-08-23 04:15:00,59.9,58.5,30.09,North,5,0.0,0.0,95,0.00,,SKC,0.00,VWS V14.01,2013-08-23 08:15:00,
2013-08-23 04:20:00,59.8,58.4,25.08,North,5,0.0,0.0,95,0.00,,SKC,0.00,VWS V14.01,2013-08-23 08:20:00,
2013-08-23 04:25:00,59.8,58.4,25.08,North,360,0.0,0.0,95,0.00,,SKC,0.00,VWS V14.01,2013-08-23 08:25:00,
2013-08-23 04:30:00,59.8,58.4,25.08,North,5,0.0,0.0,95,0.00,,SKC,0.00,VWS V14.01,2013-08-23 08:30:00,
2013-08-23 04:35:00,59.6,58.2,25.08,North,5,0.0,0.0,95,0.00,,SKC,0.00,VWS V14.01,2013-08-23 08:35:00,
2013-08-23 04:40:00,59.5,58.1,25.08,North,360,0.0,0.0,95,0.00,,SKC,0.00,VWS V14.01,2013-08-23 08:40:00,
2013-08-23 04:45:00,59.5,58.1,25.08,North,5,0.0,0.0,95,0.00,,SKC,0.00,VWS V14.01,2013-08-23 08:45:00,
2013-08-23 04:50:00,59.4,58.0,25.08,North,5,0.0,0.0,95,0.00,,SKC,0.00,VWS V14.01,2013-08-23 08:50:00,
2013-08-23 04:55:00,59.3,57.9,25.08,North,5,0.0,0.0,95,0.00,,SKC,0.00,VWS V14.01,2013-08-23 08:55:00,
2013-08-23 05:00:00,59.1,57.7,25.08,North,360,0.0,0.0,95,0.00,,SKC,0.00,VWS V14.01,2013-08-23 09:00:00,
2013-08-23 05:05:00,59.0,57.6,25.08,North,5,0.0,0.0,95,0.00,,SKC,0.00,VWS V14.01,2013-08-23 09:05:00,
2013-08-23 05:10:00,59.0,57.6,25.08,North,360,0.0,0.0,95,0.00,,SKC,0.00,VWS V14.01,2013-08-23 09:10:00,
2013-08-23 05:15:00,59.0,57.6,25.08,North,5,0.0,0.0,95,0.00,,SKC,0.00,VWS V14.01,2013-08-23 09:15:00,
2013-08-23 05:20:00,59.0,57.6,25.08,North,360,0.0,0.0,95,0.00,,SKC,0.00,VWS V14.01,2013-08-23 09:20:00,
2013-08-23 05:25:00,59.2,57.8,25.08,North,5,0.0,0.0,95,0.00,,SKC,0.00,VWS V14.01,2013-08-23 09:25:00,
2013-08-23 05:30:00,59.3,57.9,25.08,North,5,0.0,0.0,95,0.00,,SKC,0.00,VWS V14.01,2013-08-23 09:30:00,
2013-08-23 05:35:00,59.4,58.0,25.08,North,5,0.0,0.0,95,0.00,,SKC,0.00,VWS V14.01,2013-08-23 09:35:00,
2013-08-23 05:40:00,59.4,58.0,25.08,North,5,0.0,0.0,95,0.00,,SKC,0.00,VWS V14.01,2013-08-23 09:40:00,
2013-08-23 05:45:00,59.5,58.1,25.08,North,5,0.0,0.0,95,0.00,,SKC,0.00,VWS V14.01,2013-08-23 09:45:00,
2013-08-23 05:50:00,59.6,58.2,21.44,North,5,0.0,0.0,95,0.00,,SKC,0.00,VWS V14.01,2013-08-23 09:50:00,
2013-08-23 05:55:00,59.7,58.3,21.44,North,5,0.0,0.0,95,0.00,,SKC,0.00,VWS V14.01,2013-08-23 09:55:00,
2013-08-23 06:00:00,59.8,58.7,21.44,North,5,0.0,0.0,96,0.00,,SKC,0.00,VWS V14.01,2013-08-23 10:00:00,
2013-08-23 06:05:00,59.9,58.8,21.44,North,5,0.0,0.0,96,0.00,,SKC,0.00,VWS V14.01,2013-08-23 10:05:00,
2013-08-23 06:10:00,60.0,58.9,21.44,North,360,0.0,1.0,96,0.00,,SKC,0.00,VWS V14.01,2013-08-23 10:10:00,
2013-08-23 06:15:00,59.9,58.8,21.44,North,360,0.0,0.0,96,0.00,,SKC,0.00,VWS V14.01,2013-08-23 10:15:00,
2013-08-23 06:20:00,59.9,58.8,21.44,North,360,0.0,0.0,96,0.00,,SKC,0.00,VWS V14.01,2013-08-23 10:20:00,
2013-08-23 06:25:00,59.9,58.8,21.44,North,360,2.0,3.0,96,0.00,,SKC,0.00,VWS V14.01,2013-08-23 10:25:00,
2013-08-23 06:30:00,59.4,58.0,21.44,North,360,0.0,0.0,95,0.00,,SKC,0.00,VWS V14.01,2013-08-23 10:30:00,
2013-08-23 06:35:00,59.0,57.9,21.44,North,5,1.0,1.0,96,0.00,,SKC,0.00,VWS V14.01,2013-08-23 10:35:00,
2013-08-23 06:40:00,59.0,57.9,21.44,North,5,0.0,0.0,96,0.00,,SKC,0.00,VWS V14.01,2013-08-23 10:40:00,
2013-08-23 06:45:00,59.0,57.9,21.44,North,5,0.0,0.0,96,0.00,,SKC,0.00,VWS V14.01,2013-08-23 10:45:00,
2013-08-23 06:50:00,59.0,57.9,21.44,North,5,0.0,0.0,96,0.00,,SKC,0.00,VWS V14.01,2013-08-23 10:50:00,
2013-08-23 06:55:00,59.0,57.9,21.44,North,360,0.0,0.0,96,0.00,,SKC,0.00,VWS V14.01,2013-08-23 10:55:00,
2013-08-23 07:00:00,59.0,57.9,21.44,North,360,0.0,0.0,96,0.00,,SKC,0.00,VWS V14.01,2013-08-23 11:00:00,
2013-08-23 07:05:00,59.0,57.9,21.44,North,360,0.0,0.0,96,0.00,,SKC,0.00,VWS V14.01,2013-08-23 11:05:00,
2013-08-23 07:10:00,59.0,57.6,21.44,North,5,0.0,0.0,95,0.00,,SKC,0.00,VWS V14.01,2013-08-23 11:10:00,
2013-08-23 07:15:00,59.0,57.6,21.44,North,5,0.0,0.0,95,0.00,,SKC,0.00,VWS V14.01,2013-08-23 11:15:00,
2013-08-23 07:20:00,59.0,58.4,21.44,North,5,0.0,0.0,98,0.00,,SKC,0.00,VWS V14.01,2013-08-23 11:20:00,
2013-08-23 07:25:00,59.0,57.9,21.44,North,360,1.0,1.0,96,0.00,,SKC,0.00,VWS V14.01,2013-08-23 11:25:00,
2013-08-23 07:30:00,59.0,57.9,21.44,North,360,0.0,0.0,96,0.00,,SKC,0.00,VWS V14.01,2013-08-23 11:30:00,
2013-08-23 07:35:00,59.0,57.9,21.44,North,5,0.0,0.0,96,0.00,,SKC,0.00,VWS V14.01,2013-08-23 11:35:00,
2013-08-23 07:40:00,59.0,57.9,21.44,North,5,0.0,0.0,96,0.00,,SKC,0.00,VWS V14.01,2013-08-23 11:40:00,
2013-08-23 07:45:00,59.0,57.9,21.44,North,5,0.0,0.0,96,0.00,,SKC,0.00,VWS V14.01,2013-08-23 11:45:00,
2013-08-23 07:50:00,59.0,57.6,21.44,North,5,0.0,0.0,95,0.00,,SKC,0.00,VWS V14.01,2013-08-23 11:50:00,
2013-08-23 07:55:00,59.0,57.6,21.44,North,5,0.0,0.0,95,0.00,,SKC,0.00,VWS V14.01,2013-08-23 11:55:00,
2013-08-23 08:00:00,59.0,57.6,21.44,North,360,0.0,0.0,95,0.00,,SKC,0.00,VWS V14.01,2013-08-23 12:00:00,
2013-08-23 08:05:00,59.1,58.0,21.44,North,360,0.0,0.0,96,0.00,,SKC,0.00,VWS V14.01,2013-08-23 12:05:00,
2013-08-23 08:10:00,59.4,58.3,21.44,North,360,0.0,0.0,96,0.00,,SKC,0.00,VWS V14.01,2013-08-23 12:10:00,
2013-08-23 08:15:00,59.5,58.4,21.44,North,5,0.0,0.0,96,0.00,,SKC,0.00,VWS V14.01,2013-08-23 12:15:00,
2013-08-23 08:20:00,59.6,58.5,21.44,North,360,0.0,0.0,96,0.00,,SKC,0.00,VWS V14.01,2013-08-23 12:20:00,
2013-08-23 08:25:00,59.7,58.6,21.44,North,5,0.0,0.0,96,0.00,,SKC,0.00,VWS V14.01,2013-08-23 12:25:00,
2013-08-23 08:30:00,60.0,58.9,21.44,North,360,0.0,0.0,96,0.00,,SKC,0.00,VWS V14.01,2013-08-23 12:30:00,
2013-08-23 08:35:00,60.4,59.3,21.44,North,5,0.0,0.0,96,0.00,,SKC,0.00,VWS V14.01,2013-08-23 12:35:00,
2013-08-23 08:40:00,60.3,59.2,21.44,North,5,0.0,0.0,96,0.00,,SKC,0.00,VWS V14.01,2013-08-23 12:40:00,
2013-08-23 08:45:00,60.8,59.7,21.44,North,5,0.0,0.0,96,0.00,,SKC,0.00,VWS V14.01,2013-08-23 12:45:00,
2013-08-23 08:50:00,60.9,59.8,21.44,North,360,0.0,0.0,96,0.00,,SKC,0.00,VWS V14.01,2013-08-23 12:50:00,
2013-08-23 08:55:00,61.2,60.0,21.44,North,5,0.0,0.0,96,0.00,,SKC,0.00,VWS V14.01,2013-08-23 12:55:00,
2013-08-23 09:00:00,61.4,60.2,26.24,North,360,0.0,0.0,96,0.00,,SKC,0.00,VWS V14.01,2013-08-23 13:00:00,
2013-08-23 09:05:00,61.7,60.5,26.24,North,360,0.0,0.0,96,0.00,,SKC,0.00,VWS V14.01,2013-08-23 13:05:00,
2013-08-23 09:10:00,62.0,60.8,26.24,North,5,0.0,1.0,96,0.00,,SKC,0.00,VWS V14.01,2013-08-23 13:10:00,
2013-08-23 09:15:00,62.3,61.2,26.24,North,5,0.0,0.0,96,0.00,,SKC,0.00,VWS V14.01,2013-08-23 13:15:00,
2013-08-23 09:20:00,62.8,61.7,26.24,North,5,1.0,1.0,96,0.00,,SKC,0.00,VWS V14.01,2013-08-23 13:20:00,
2013-08-23 09:25:00,63.4,62.2,26.24,North,360,0.0,0.0,96,0.00,,SKC,0.00,VWS V14.01,2013-08-23 13:25:00,
2013-08-23 09:30:00,64.0,62.5,26.24,North,5,0.0,0.0,95,0.00,,SKC,0.00,VWS V14.01,2013-08-23 13:30:00,
2013-08-23 09:35:00,64.1,62.3,26.24,North,5,0.0,1.0,94,0.00,,SKC,0.00,VWS V14.01,2013-08-23 13:35:00,
2013-08-23 09:40:00,64.4,62.0,26.24,North,360,0.0,0.0,92,0.00,,SKC,0.00,VWS V14.01,2013-08-23 13:40:00,
2013-08-23 09:45:00,64.7,61.7,26.24,North,5,0.0,0.0,90,0.00,,SKC,0.00,VWS V14.01,2013-08-23 13:45:00,
2013-08-23 09:50:00,65.4,62.4,26.24,North,360,0.0,0.0,90,0.00,,SKC,0.00,VWS V14.01,2013-08-23 13:50:00,
2013-08-23 09:55:00,66.1,62.8,26.24,North,360,0.0,0.0,89,0.00,,SKC,0.00,VWS V14.01,2013-08-23 13:55:00,
2013-08-23 10:00:00,66.7,62.7,26.24,North,360,0.0,0.0,87,0.00,,SKC,0.00,VWS V14.01,2013-08-23 14:00:00,
2013-08-23 10:04:00,67.3,63.0,26.24,North,360,0.0,0.0,86,0.00,,SKC,0.00,VWS V14.01,2013-08-23 14:04:00,
2013-08-23 10:09:00,67.9,63.6,26.24,North,5,1.0,2.0,86,0.00,,SKC,0.00,VWS V14.01,2013-08-23 14:09:00,
2013-08-23 10:14:00,68.3,63.6,26.24,North,5,1.0,1.0,85,0.00,,SKC,0.00,VWS V14.01,2013-08-23 14:14:00,
2013-08-23 10:19:00,68.7,63.7,26.24,North,5,0.0,0.0,84,0.00,,SKC,0.00,VWS V14.01,2013-08-23 14:19:00,
2013-08-23 10:24:00,69.5,64.8,26.24,North,5,0.0,1.0,85,0.00,,SKC,0.00,VWS V14.01,2013-08-23 14:24:00,
2013-08-23 10:29:00,70.3,65.2,26.24,North,5,2.0,3.0,84,0.00,,SKC,0.00,VWS V14.01,2013-08-23 14:29:00,
2013-08-23 10:34:00,70.7,65.3,26.24,North,360,0.0,0.0,83,0.00,,SKC,0.00,VWS V14.01,2013-08-23 14:34:00,
2013-08-23 10:39:00,71.3,65.9,26.24,North,360,0.0,0.0,83,0.00,,SKC,0.00,VWS V14.01,2013-08-23 14:39:00,
2013-08-23 10:44:00,72.3,66.5,26.24,North,5,3.0,3.0,82,0.00,,SKC,0.00,VWS V14.01,2013-08-23 14:44:00,
2013-08-23 10:49:00,72.8,66.6,26.24,North,5,0.0,0.0,81,0.00,,SKC,0.00,VWS V14.01,2013-08-23 14:49:00,
2013-08-23 10:54:00,73.4,66.9,26.24,North,5,0.0,2.0,80,0.00,,SKC,0.00,VWS V14.01,2013-08-23 14:54:00,
2013-08-23 10:59:00,74.1,67.5,26.24,North,360,0.0,1.0,80,0.00,,SKC,0.00,VWS V14.01,2013-08-23 14:59:00,
2013-08-23 11:04:00,74.7,67.0,26.24,North,360,1.0,1.0,77,0.00,,SKC,0.00,VWS V14.01,2013-08-23 15:04:00,
2013-08-23 11:09:00,75.1,67.8,26.24,North,360,2.0,2.0,78,0.00,,SKC,0.00,VWS V14.01,2013-08-23 15:09:00,
2013-08-23 11:14:00,75.0,67.3,26.24,NNE,13,0.0,0.0,77,0.00,,SKC,0.00,VWS V14.01,2013-08-23 15:14:00,
2013-08-23 11:19:00,75.2,67.1,26.24,NNE,13,0.0,0.0,76,0.00,,SKC,0.00,VWS V14.01,2013-08-23 15:19:00,
2013-08-23 11:24:00,75.5,67.0,26.24,NNE,13,0.0,3.0,75,0.00,,SKC,0.00,VWS V14.01,2013-08-23 15:24:00,
2013-08-23 11:29:00,75.4,66.5,26.24,NNE,13,0.0,0.0,74,0.00,,SKC,0.00,VWS V14.01,2013-08-23 15:29:00,
2013-08-23 11:34:00,75.3,66.8,26.24,NNE,13,0.0,1.0,75,0.00,,SKC,0.00,VWS V14.01,2013-08-23 15:34:00,
2013-08-23 11:39:00,75.8,67.3,26.24,NNE,15,1.0,1.0,75,0.00,,SKC,0.00,VWS V14.01,2013-08-23 15:39:00,
2013-08-23 11:44:00,76.0,67.9,26.24,ENE,66,0.0,2.0,76,0.00,,SKC,0.00,VWS V14.01,2013-08-23 15:44:00,
2013-08-23 11:49:00,76.1,67.2,26.24,ENE,66,0.0,0.0,74,0.00,,SKC,0.00,VWS V14.01,2013-08-23 15:49:00,
2013-08-23 11:54:00,75.8,66.9,26.24,ENE,65,1.0,2.0,74,0.00,,SKC,0.00,VWS V14.01,2013-08-23 15:54:00,
2013-08-23 11:59:00,75.9,67.0,26.24,NNE,14,2.0,2.0,74,0.00,,SKC,0.00,VWS V14.01,2013-08-23 15:59:00,
2013-08-23 12:04:00,76.5,67.6,26.24,North,9,2.0,3.0,74,0.00,,SKC,0.00,VWS V14.01,2013-08-23 16:04:00,
2013-08-23 12:09:00,76.3,66.6,26.24,South,181,0.0,4.0,72,0.00,,SKC,0.00,VWS V14.01,2013-08-23 16:09:00,
2013-08-23 12:14:00,76.3,67.4,26.24,SW,227,2.0,4.0,74,0.00,,SKC,0.00,VWS V14.01,2013-08-23 16:14:00,
2013-08-23 12:19:00,77.0,68.5,26.24,SSE,159,3.0,4.0,75,0.00,,SKC,0.00,VWS V14.01,2013-08-23 16:19:00,
2013-08-23 12:24:00,77.0,67.3,26.24,SE,132,0.0,2.0,72,0.00,,SKC,0.00,VWS V14.01,2013-08-23 16:24:00,
2013-08-23 12:29:00,77.2,67.1,26.24,NNE,15,5.0,5.0,71,0.00,,SKC,0.00,VWS V14.01,2013-08-23 16:29:00,
2013-08-23 12:34:00,77.3,66.8,26.24,North,11,1.0,4.0,70,0.00,,SKC,0.00,VWS V14.01,2013-08-23 16:34:00,
2013-08-23 12:39:00,77.2,66.2,26.24,SE,134,0.0,2.0,69,0.00,,SKC,0.00,VWS V14.01,2013-08-23 16:39:00,
2013-08-23 12:44:00,77.7,66.7,26.24,SE,128,0.0,3.0,69,0.00,,SKC,0.00,VWS V14.01,2013-08-23 16:44:00,
2013-08-23 12:49:00,78.2,67.6,26.24,ENE,61,3.0,3.0,70,0.00,,SKC,0.00,VWS V14.01,2013-08-23 16:49:00,
2013-08-23 12:54:00,78.6,68.4,26.24,East,83,0.0,0.0,71,0.00,,SKC,0.00,VWS V14.01,2013-08-23 16:54:00,
2013-08-23 12:59:00,79.1,67.6,26.24,WNW,286,0.0,4.0,68,0.00,,SKC,0.00,VWS V14.01,2013-08-23 16:59:00,
2013-08-23 13:04:00,79.2,67.3,26.24,SSW,209,5.0,5.0,67,0.00,,SKC,0.00,VWS V14.01,2013-08-23 17:04:00,
2013-08-23 13:09:00,78.7,67.3,26.24,NNW,334,4.0,4.0,68,0.00,,SKC,0.00,VWS V14.01,2013-08-23 17:09:00,
2013-08-23 13:14:00,78.5,67.1,26.24,NE,36,1.0,1.0,68,0.00,,SKC,0.00,VWS V14.01,2013-08-23 17:14:00,
2013-08-23 13:19:00,79.0,66.7,26.24,NE,48,1.0,3.0,66,0.00,,SKC,0.00,VWS V14.01,2013-08-23 17:19:00,
2013-08-23 13:24:00,78.9,66.6,26.24,ENE,76,0.0,2.0,66,0.00,,SKC,0.00,VWS V14.01,2013-08-23 17:24:00,
2013-08-23 13:29:00,79.0,67.1,26.24,ENE,75,0.0,1.0,67,0.00,,SKC,0.00,VWS V14.01,2013-08-23 17:29:00,
2013-08-23 13:34:00,79.3,67.0,26.24,NE,45,2.0,2.0,66,0.00,,SKC,0.00,VWS V14.01,2013-08-23 17:34:00,
2013-08-23 13:39:00,79.7,67.3,26.24,ENE,68,2.0,4.0,66,0.00,,SKC,0.00,VWS V14.01,2013-08-23 17:39:00,
2013-08-23 13:44:00,79.1,65.9,26.24,East,80,0.0,0.0,64,0.00,,SKC,0.00,VWS V14.01,2013-08-23 17:44:00,
2013-08-23 13:49:00,79.3,65.6,26.24,NNE,13,1.0,4.0,63,0.00,,SKC,0.00,VWS V14.01,2013-08-23 17:49:00,
2013-08-23 13:54:00,79.3,65.6,26.24,NNE,13,0.0,2.0,63,0.00,,SKC,0.00,VWS V14.01,2013-08-23 17:54:00,
2013-08-23 13:59:00,79.7,66.0,26.24,North,11,2.0,2.0,63,0.00,,SKC,0.00,VWS V14.01,2013-08-23 17:59:00,
2013-08-23 14:04:00,80.3,66.1,26.24,North,5,2.0,2.0,62,0.00,,SKC,0.00,VWS V14.01,2013-08-23 18:04:00,
2013-08-23 14:09:00,81.0,64.8,26.24,North,360,2.0,2.0,58,0.00,,SKC,0.00,VWS V14.01,2013-08-23 18:09:00,
2013-08-23 14:14:00,81.4,63.7,26.24,North,11,7.0,7.0,55,0.00,,SKC,0.00,VWS V14.01,2013-08-23 18:14:00,
2013-08-23 14:19:00,81.0,62.3,26.24,North,10,3.0,3.0,53,0.00,,SKC,0.00,VWS V14.01,2013-08-23 18:19:00,
2013-08-23 14:24:00,81.7,64.5,26.24,North,10,1.0,3.0,56,0.00,,SKC,0.00,VWS V14.01,2013-08-23 18:24:00,
2013-08-23 14:29:00,82.4,65.1,26.24,North,11,1.0,1.0,56,0.00,,SKC,0.00,VWS V14.01,2013-08-23 18:29:00,
2013-08-23 14:34:00,81.9,63.1,26.24,SSE,162,2.0,3.0,53,0.00,,SKC,0.00,VWS V14.01,2013-08-23 18:34:00,
2013-08-23 14:39:00,81.4,62.1,26.24,NNE,33,0.0,1.0,52,0.00,,SKC,0.00,VWS V14.01,2013-08-23 18:39:00,
2013-08-23 14:44:00,81.5,63.8,26.24,ENE,78,1.0,1.0,55,0.00,,SKC,0.00,VWS V14.01,2013-08-23 18:44:00,
2013-08-23 14:49:00,81.3,63.6,26.24,ENE,78,0.0,2.0,55,0.00,,SKC,0.00,VWS V14.01,2013-08-23 18:49:00,
2013-08-23 14:54:00,81.3,64.1,26.24,East,88,0.0,2.0,56,0.00,,SKC,0.00,VWS V14.01,2013-08-23 18:54:00,
2013-08-23 14:59:00,81.4,63.7,26.24,East,93,0.0,5.0,55,0.00,,SKC,0.00,VWS V14.01,2013-08-23 18:59:00,
2013-08-23 15:04:00,81.2,64.0,26.24,NNE,13,0.0,0.0,56,0.00,,SKC,0.00,VWS V14.01,2013-08-23 19:04:00,
2013-08-23 15:09:00,82.2,65.0,26.24,NNE,13,1.0,1.0,56,0.00,,SKC,0.00,VWS V14.01,2013-08-23 19:09:00,
2013-08-23 15:14:00,82.9,65.1,26.24,NNE,13,1.0,1.0,55,0.00,,SKC,0.00,VWS V14.01,2013-08-23 19:14:00,
2013-08-23 15:19:00,83.0,66.2,26.24,NNE,21,1.0,1.0,57,0.00,,SKC,0.00,VWS V14.01,2013-08-23 19:19:00,
2013-08-23 15:24:00,83.5,65.7,26.24,NNE,21,2.0,2.0,55,0.00,,SKC,0.00,VWS V14.01,2013-08-23 19:24:00,
2013-08-23 15:29:00,83.1,65.8,26.24,NNE,22,1.0,1.0,56,0.00,,SKC,0.00,VWS V14.01,2013-08-23 19:29:00,
2013-08-23 15:34:00,82.2,65.0,26.24,NNE,23,0.0,1.0,56,0.00,,SKC,0.00,VWS V14.01,2013-08-23 19:34:00,
2013-08-23 15:39:00,81.8,64.6,26.24,NNE,21,1.0,1.0,56,0.00,,SKC,0.00,VWS V14.01,2013-08-23 19:39:00,
2013-08-23 15:44:00,82.1,64.9,26.24,NNE,25,0.0,1.0,56,0.00,,SKC,0.00,VWS V14.01,2013-08-23 19:44:00,
2013-08-23 15:49:00,81.4,66.2,26.24,NNE,25,0.0,1.0,60,0.00,,SKC,0.00,VWS V14.01,2013-08-23 19:49:00,
2013-08-23 15:54:00,80.5,65.8,26.24,NNE,25,0.0,0.0,61,0.00,,SKC,0.00,VWS V14.01,2013-08-23 19:54:00,
2013-08-23 15:58:00,80.0,65.4,26.24,NNE,25,2.0,2.0,61,0.00,,SKC,0.00,VWS V14.01,2013-08-23 19:58:00,
2013-08-23 16:03:00,79.5,65.3,26.24,NNE,25,1.0,2.0,62,0.00,,SKC,0.00,VWS V14.01,2013-08-23 20:03:00,
2013-08-23 16:08:00,79.4,65.7,26.24,NNE,25,0.0,1.0,63,0.00,,SKC,0.00,VWS V14.01,2013-08-23 20:08:00,
2013-08-23 16:13:00,80.2,66.0,26.24,NNE,25,0.0,0.0,62,0.00,,SKC,0.00,VWS V14.01,2013-08-23 20:13:00,
2013-08-23 16:18:00,81.0,66.3,23.79,NNE,22,0.0,1.0,61,0.00,,SKC,0.00,VWS V14.01,2013-08-23 20:18:00,
2013-08-23 16:23:00,81.6,66.4,23.79,NNE,23,2.0,3.0,60,0.00,,SKC,0.00,VWS V14.01,2013-08-23 20:23:00,
2013-08-23 16:28:00,81.4,65.7,23.79,NNE,24,2.0,2.0,59,0.00,,SKC,0.00,VWS V14.01,2013-08-23 20:28:00,
2013-08-23 16:33:00,80.8,65.2,23.79,NNE,24,1.0,1.0,59,0.00,,SKC,0.00,VWS V14.01,2013-08-23 20:33:00,
2013-08-23 16:38:00,80.0,66.3,23.79,NNE,24,0.0,0.0,63,0.00,,SKC,0.00,VWS V14.01,2013-08-23 20:38:00,
2013-08-23 16:43:00,78.9,65.2,23.79,ENE,69,2.0,2.0,63,0.00,,SKC,0.00,VWS V14.01,2013-08-23 20:43:00,
2013-08-23 16:48:00,78.1,64.9,23.79,NNE,20,2.0,2.0,64,0.00,,SKC,0.00,VWS V14.01,2013-08-23 20:48:00,
2013-08-23 16:53:00,77.8,66.0,23.79,NNE,19,3.0,3.0,67,0.00,,SKC,0.00,VWS V14.01,2013-08-23 20:53:00,
2013-08-23 16:58:00,77.4,65.6,23.79,NNW,344,0.0,1.0,67,0.00,,SKC,0.00,VWS V14.01,2013-08-23 20:58:00,
2013-08-23 17:03:00,76.9,65.5,23.79,NNE,21,7.0,7.0,68,0.00,,SKC,0.00,VWS V14.01,2013-08-23 21:03:00,
2013-08-23 17:08:00,75.9,65.0,23.79,NNW,345,3.0,3.0,69,0.00,,SKC,0.00,VWS V14.01,2013-08-23 21:08:00,
2013-08-23 17:13:00,75.4,64.5,23.79,NNW,331,3.0,5.0,69,0.00,,SKC,0.00,VWS V14.01,2013-08-23 21:13:00,
2013-08-23 17:18:00,74.9,64.5,23.79,NNE,17,1.0,3.0,70,0.00,,SKC,0.00,VWS V14.01,2013-08-23 21:18:00,
2013-08-23 17:23:00,74.6,64.6,23.79,WNW,302,5.0,7.0,71,0.00,,SKC,0.00,VWS V14.01,2013-08-23 21:23:00,
2013-08-23 17:28:00,74.0,64.0,23.79,NNW,342,1.0,3.0,71,0.00,,SKC,0.00,VWS V14.01,2013-08-23 21:28:00,
2013-08-23 17:33:00,73.8,64.2,23.79,North,350,0.0,0.0,72,0.00,,SKC,0.00,VWS V14.01,2013-08-23 21:33:00,
2013-08-23 17:38:00,73.6,63.6,23.79,North,350,2.0,2.0,71,0.00,,SKC,0.00,VWS V14.01,2013-08-23 21:38:00,
2013-08-23 17:43:00,73.3,62.9,23.79,NNW,340,0.0,1.0,70,0.00,,SKC,0.00,VWS V14.01,2013-08-23 21:43:00,
2013-08-23 17:48:00,73.1,62.7,23.79,East,90,0.0,3.0,70,0.00,,SKC,0.00,VWS V14.01,2013-08-23 21:48:00,
2013-08-23 17:53:00,72.7,62.8,23.79,East,90,0.0,2.0,71,0.00,,SKC,0.00,VWS V14.01,2013-08-23 21:53:00,
2013-08-23 17:58:00,72.6,63.8,23.79,East,90,0.0,1.0,74,0.00,,SKC,0.00,VWS V14.01,2013-08-23 21:58:00,
2013-08-23 18:03:00,72.5,64.1,23.79,East,90,0.0,0.0,75,0.00,,SKC,0.00,VWS V14.01,2013-08-23 22:03:00,
2013-08-23 18:08:00,72.4,64.8,23.79,East,90,0.0,0.0,77,0.00,,SKC,0.00,VWS V14.01,2013-08-23 22:08:00,
2013-08-23 18:13:00,72.2,64.6,23.79,East,90,0.0,0.0,77,0.00,,SKC,0.00,VWS V14.01,2013-08-23 22:13:00,
2013-08-23 18:18:00,71.9,64.7,23.79,East,90,0.0,0.0,78,0.00,,SKC,0.00,VWS V14.01,2013-08-23 22:18:00,
2013-08-23 18:23:00,71.7,64.1,23.79,East,90,0.0,0.0,77,0.00,,SKC,0.00,VWS V14.01,2013-08-23 22:23:00,
2013-08-23 18:28:00,72.2,65.0,23.79,East,90,1.0,2.0,78,0.00,,SKC,0.00,VWS V14.01,2013-08-23 22:28:00,
2013-08-23 18:33:00,73.1,64.3,23.79,East,90,0.0,1.0,74,0.00,,SKC,0.00,VWS V14.01,2013-08-23 22:33:00,
2013-08-23 18:38:00,74.0,64.0,23.79,East,90,0.0,0.0,71,0.00,,SKC,0.00,VWS V14.01,2013-08-23 22:38:00,
2013-08-23 18:43:00,74.5,63.7,23.79,East,90,0.0,0.0,69,0.00,,SKC,0.00,VWS V14.01,2013-08-23 22:43:00,
2013-08-23 18:48:00,74.8,64.4,23.79,East,90,1.0,1.0,70,0.00,,SKC,0.00,VWS V14.01,2013-08-23 22:48:00,
2013-08-23 18:53:00,74.5,64.9,23.79,East,90,0.0,0.0,72,0.00,,SKC,0.00,VWS V14.01,2013-08-23 22:53:00,
2013-08-23 18:58:00,74.0,64.8,23.79,East,90,0.0,0.0,73,0.00,,SKC,0.00,VWS V14.01,2013-08-23 22:58:00,
2013-08-23 19:03:00,73.6,65.2,23.79,East,90,0.0,0.0,75,0.00,,SKC,0.00,VWS V14.01,2013-08-23 23:03:00,
2013-08-23 19:08:00,73.1,65.1,23.79,East,90,0.0,0.0,76,0.00,,SKC,0.00,VWS V14.01,2013-08-23 23:08:00,
2013-08-23 19:13:00,72.6,64.6,23.79,East,90,0.0,0.0,76,0.00,,SKC,0.00,VWS V14.01,2013-08-23 23:13:00,
2013-08-23 19:18:00,72.1,64.9,23.79,East,90,0.0,0.0,78,0.00,,SKC,0.00,VWS V14.01,2013-08-23 23:18:00,
2013-08-23 19:23:00,71.8,64.6,23.79,East,90,0.0,0.0,78,0.00,,SKC,0.00,VWS V14.01,2013-08-23 23:23:00,
2013-08-23 19:28:00,71.5,64.7,23.79,East,90,0.0,0.0,79,0.00,,SKC,0.00,VWS V14.01,2013-08-23 23:28:00,
2013-08-23 19:33:00,71.1,64.6,23.79,East,90,0.0,1.0,80,0.00,,SKC,0.00,VWS V14.01,2013-08-23 23:33:00,
2013-08-23 19:38:00,70.5,64.4,23.79,East,90,0.0,1.0,81,0.00,,SKC,0.00,VWS V14.01,2013-08-23 23:38:00,
2013-08-23 19:43:00,70.0,64.6,23.79,East,90,0.0,0.0,83,0.00,,SKC,0.00,VWS V14.01,2013-08-23 23:43:00,
2013-08-23 19:48:00,69.6,64.2,23.79,East,90,0.0,0.0,83,0.00,,SKC,0.00,VWS V14.01,2013-08-23 23:48:00,
2013-08-23 19:53:00,69.4,64.0,23.79,East,90,0.0,0.0,83,0.00,,SKC,0.00,VWS V14.01,2013-08-23 23:53:00,
2013-08-23 19:58:00,69.3,64.3,23.79,East,90,0.0,0.0,84,0.00,,SKC,0.00,VWS V14.01,2013-08-23 23:58:00,
2013-08-23 20:03:00,69.2,64.2,23.79,East,90,0.0,0.0,84,0.00,,SKC,0.00,VWS V14.01,2013-08-24 00:03:00,
2013-08-23 20:08:00,68.9,63.9,23.79,East,90,0.0,0.0,84,0.00,,SKC,0.00,VWS V14.01,2013-08-24 00:08:00,
2013-08-23 20:13:00,68.8,64.1,23.79,East,90,0.0,0.0,85,0.00,,SKC,0.00,VWS V14.01,2013-08-24 00:13:00,
2013-08-23 20:18:00,68.6,64.2,23.79,East,90,0.0,0.0,86,0.00,,SKC,0.00,VWS V14.01,2013-08-24 00:18:00,
2013-08-23 20:23:00,68.3,64.0,23.79,East,90,0.0,0.0,86,0.00,,SKC,0.00,VWS V14.01,2013-08-24 00:23:00,
2013-08-23 20:28:00,68.1,63.8,23.79,East,90,1.0,1.0,86,0.00,,SKC,0.00,VWS V14.01,2013-08-24 00:28:00,
2013-08-23 20:33:00,67.8,63.8,23.79,East,90,0.0,0.0,87,0.00,,SKC,0.00,VWS V14.01,2013-08-24 00:33:00,
2013-08-23 20:38:00,67.6,63.3,23.79,East,90,0.0,0.0,86,0.00,,SKC,0.00,VWS V14.01,2013-08-24 00:38:00,
2013-08-23 20:43:00,67.4,63.4,23.79,East,90,0.0,0.0,87,0.00,,SKC,0.00,VWS V14.01,2013-08-24 00:43:00,
2013-08-23 20:48:00,67.1,63.1,23.79,East,90,0.0,0.0,87,0.00,,SKC,0.00,VWS V14.01,2013-08-24 00:48:00,
2013-08-23 20:53:00,67.0,63.0,23.79,East,90,0.0,0.0,87,0.00,,SKC,0.00,VWS V14.01,2013-08-24 00:53:00,
2013-08-23 20:58:00,66.8,63.1,23.79,East,90,0.0,0.0,88,0.00,,SKC,0.00,VWS V14.01,2013-08-24 00:58:00,
2013-08-23 21:03:00,66.8,63.5,23.79,East,90,0.0,0.0,89,0.00,,SKC,0.00,VWS V14.01,2013-08-24 01:03:00,
2013-08-23 21:08:00,66.6,63.3,23.79,East,90,0.0,0.0,89,0.00,,SKC,0.00,VWS V14.01,2013-08-24 01:08:00,
2013-08-23 21:13:00,66.4,63.1,23.79,East,90,0.0,0.0,89,0.00,,SKC,0.00,VWS V14.01,2013-08-24 01:13:00,
2013-08-23 21:18:00,66.1,62.8,23.79,East,90,0.0,0.0,89,0.00,,SKC,0.00,VWS V14.01,2013-08-24 01:18:00,
2013-08-23 21:22:00,65.7,62.4,23.79,East,90,0.0,0.0,89,0.00,,SKC,0.00,VWS V14.01,2013-08-24 01:22:00,
2013-08-23 21:27:00,65.5,62.2,23.79,East,90,0.0,0.0,89,0.00,,SKC,0.00,VWS V14.01,2013-08-24 01:27:00,
2013-08-23 21:32:00,65.3,62.3,23.79,East,90,0.0,0.0,90,0.00,,SKC,0.00,VWS V14.01,2013-08-24 01:32:00,
2013-08-23 21:37:00,65.1,62.1,23.79,East,90,0.0,0.0,90,0.00,,SKC,0.00,VWS V14.01,2013-08-24 01:37:00,
2013-08-23 21:42:00,65.0,62.0,23.79,East,90,0.0,0.0,90,0.00,,SKC,0.00,VWS V14.01,2013-08-24 01:42:00,
2013-08-23 21:47:00,65.0,62.0,23.79,East,90,0.0,0.0,90,0.00,,SKC,0.00,VWS V14.01,2013-08-24 01:47:00,
2013-08-23 21:52:00,64.8,61.8,23.79,East,90,0.0,0.0,90,0.00,,SKC,0.00,VWS V14.01,2013-08-24 01:52:00,
2013-08-23 21:57:00,64.7,61.7,23.79,East,90,0.0,0.0,90,0.00,,SKC,0.00,VWS V14.01,2013-08-24 01:57:00,
2013-08-23 22:02:00,64.7,61.7,23.79,East,90,0.0,0.0,90,0.00,,SKC,0.00,VWS V14.01,2013-08-24 02:02:00,
2013-08-23 22:07:00,64.6,61.6,23.79,East,90,0.0,0.0,90,0.00,,SKC,0.00,VWS V14.01,2013-08-24 02:07:00,
2013-08-23 22:12:00,64.5,61.8,23.79,East,90,0.0,0.0,91,0.00,,SKC,0.00,VWS V14.01,2013-08-24 02:12:00,
2013-08-23 22:17:00,64.4,61.7,23.79,East,90,0.0,0.0,91,0.00,,SKC,0.00,VWS V14.01,2013-08-24 02:17:00,
2013-08-23 22:22:00,64.2,61.5,31.77,East,90,0.0,0.0,91,0.00,,SKC,0.00,VWS V14.01,2013-08-24 02:22:00,
2013-08-23 22:27:00,64.1,61.4,31.77,East,90,0.0,0.0,91,0.00,,SKC,0.00,VWS V14.01,2013-08-24 02:27:00,
2013-08-23 22:32:00,63.9,61.2,31.77,East,90,0.0,0.0,91,0.00,,SKC,0.00,VWS V14.01,2013-08-24 02:32:00,
2013-08-23 22:37:00,63.7,61.0,31.77,East,90,0.0,0.0,91,0.00,,SKC,0.00,VWS V14.01,2013-08-24 02:37:00,
2013-08-23 22:42:00,63.6,60.9,31.77,East,90,0.0,0.0,91,0.00,,SKC,0.00,VWS V14.01,2013-08-24 02:42:00,
2013-08-23 22:47:00,63.4,60.7,31.77,East,90,0.0,0.0,91,0.00,,SKC,0.00,VWS V14.01,2013-08-24 02:47:00,
2013-08-23 22:52:00,63.2,60.5,31.77,East,90,0.0,0.0,91,0.00,,SKC,0.00,VWS V14.01,2013-08-24 02:52:00,
2013-08-23 22:57:00,63.1,60.4,31.77,East,90,0.0,0.0,91,0.00,,SKC,0.00,VWS V14.01,2013-08-24 02:57:00,
2013-08-23 23:02:00,63.0,60.3,31.77,East,90,0.0,0.0,91,0.00,,SKC,0.00,VWS V14.01,2013-08-24 03:02:00,
2013-08-23 23:07:00,62.8,60.1,31.77,East,90,0.0,0.0,91,0.00,,SKC,0.00,VWS V14.01,2013-08-24 03:07:00,
2013-08-23 23:12:00,62.7,60.0,31.77,East,90,0.0,0.0,91,0.00,,SKC,0.00,VWS V14.01,2013-08-24 03:12:00,
2013-08-23 23:17:00,62.5,59.8,31.77,East,90,0.0,0.0,91,0.00,,SKC,0.00,VWS V14.01,2013-08-24 03:17:00,
2013-08-23 23:22:00,62.3,59.6,31.77,East,90,0.0,0.0,91,0.00,,SKC,0.00,VWS V14.01,2013-08-24 03:22:00,
2013-08-23 23:27:00,62.2,59.5,31.77,East,90,0.0,0.0,91,0.00,,SKC,0.00,VWS V14.01,2013-08-24 03:27:00,
2013-08-23 23:32:00,62.0,59.7,31.77,East,90,0.0,0.0,92,0.00,,SKC,0.00,VWS V14.01,2013-08-24 03:32:00,
2013-08-23 23:37:00,61.8,59.5,31.77,East,90,0.0,0.0,92,0.00,,SKC,0.00,VWS V14.01,2013-08-24 03:37:00,
2013-08-23 23:42:00,61.6,59.3,31.77,East,90,0.0,0.0,92,0.00,,SKC,0.00,VWS V14.01,2013-08-24 03:42:00,
2013-08-23 23:47:00,61.6,59.3,31.77,East,90,0.0,0.0,92,0.00,,SKC,0.00,VWS V14.01,2013-08-24 03:47:00,
2013-08-23 23:52:00,61.5,59.2,31.77,East,90,0.0,0.0,92,0.00,,SKC,0.00,VWS V14.01,2013-08-24 03:52:00,
2013-08-23 23:57:00,61.4,59.1,31.77,East,90,0.0,0.0,92,0.00,,SKC,0.00,VWS V14.01,2013-08-24 03:57:00,